Airfield :
LOGIN :

Register | Disclaimer

   EN    FR    IT 

 










Legend :    VFR   Marginal VFR   IFR   Intensive IFR   Very Intensive IFR
Visi :
Ceiling :
>= 8 km
>= 3000ft
5 to 8 km
1000 to 3000 ft
1500m to 5 km
500 to 1000 ft
800 to 1500m
200 to 500 ft
< 800m
< 200 ft
Symbols :   Thunderstorms  Fog  Heavy snow  Heavy precipitations  Wind > 20 kt
SIGMETs :     Misc.  Thunderstorms  Icing  Turbulence  Mountain Waves  Volcanic Ashes






- Airport Elevation : 177 ft
- IATA code : AYT


LTAI - Antalya

CURRENT METAR :
  • 121650Z 07006KT 9999 SCT030 28/25 Q1006 NOSIG RMK RWY18C 07005KT RWY36R 07005KT 030V090 RWY18L 07005KT

EXPIRED METARs :
  • 121620Z 09005KT 060V120 9999 SCT030 29/25 Q1006 NOSIG RMK RWY18C 09006KT RWY36R 08006KT RWY18L 07006KT
  • 121550Z 07005KT 020V110 9999 FEW020CB SCT030 29/25 Q1006 NOSIG RMK RWY18C 10005KT 080V140 RWY36R 08006KT 050V110 RWY18L 08005KT 040V130
  • 121520Z 09007KT 050V130 9999 FEW020CB SCT030 29/25 Q1006 NOSIG RMK RWY18C 09006KT 060V120 RWY36R 09008KT 050V120 RWY18L 11007KT 060V140
  • 121450Z 11008KT 080V150 9999 FEW020CB SCT030 29/25 Q1006 NOSIG RMK RWY18C 11008KT 080V140 RWY36R 11009KT 080V150 RWY18L 11008KT
  • 121420Z 12010KT 9999 FEW020CB SCT030 31/25 Q1006 NOSIG

TAF TAF LTAI
Valid from the 12 at 12:00 until the 13 at 12:00 UTC


121040Z 1212/1312 16012KT 9999 FEW020CB SCT030
BECMG 1217/1221 VRB02KT CAVOK
BECMG 1222/1302 34012KT
BECMG 1307/1310 16012KT



MET'MAP, your aeronautical weather chart ! - Copyright ORBIFLY December 2007 - Disclaimer

ORBIFLY MET'MAP TEAM :

Programming & Development : Alexandra Zaïnal
Concept & original design : Baudouin d'Aumeries
Assistance for programming : Marc-Olivier Méhu
Technical & hardware support : Manuel Goepfert

Contact : metmap@orbifly.com




SOURCES & CREDITS :

   NOAA